sensor_id;sensor_type;location;lat;lon;timestamp;temperature;humidity
29731;DHT22;16639;51.488;0.152;2023-12-07T00:00:48;4.80;99.90
29731;DHT22;16639;51.488;0.152;2023-12-07T00:03:15;4.80;99.90
29731;DHT22;16639;51.488;0.152;2023-12-07T00:05:43;4.80;99.90
29731;DHT22;16639;51.488;0.152;2023-12-07T00:08:10;4.80;99.90
29731;DHT22;16639;51.488;0.152;2023-12-07T00:10:38;4.50;99.90
29731;DHT22;16639;51.488;0.152;2023-12-07T00:13:05;4.90;99.90
29731;DHT22;16639;51.488;0.152;2023-12-07T00:15:33;4.90;99.90
29731;DHT22;16639;51.488;0.152;2023-12-07T00:18:01;4.90;99.90
29731;DHT22;16639;51.488;0.152;2023-12-07T00:20:30;5.00;99.90
29731;DHT22;16639;51.488;0.152;2023-12-07T00:22:57;4.90;99.90
29731;DHT22;16639;51.488;0.152;2023-12-07T00:25:25;5.00;99.90
29731;DHT22;16639;51.488;0.152;2023-12-07T00:27:52;5.00;99.90
29731;DHT22;16639;51.488;0.152;2023-12-07T00:30:20;5.00;99.90
29731;DHT22;16639;51.488;0.152;2023-12-07T00:32:48;5.00;99.90
29731;DHT22;16639;51.488;0.152;2023-12-07T00:35:15;5.00;99.90
29731;DHT22;16639;51.488;0.152;2023-12-07T00:37:43;5.00;99.90
29731;DHT22;16639;51.488;0.152;2023-12-07T00:40:11;5.00;99.90
29731;DHT22;16639;51.488;0.152;2023-12-07T00:42:40;5.10;99.90
29731;DHT22;16639;51.488;0.152;2023-12-07T00:45:08;5.00;99.90
29731;DHT22;16639;51.488;0.152;2023-12-07T00:47:35;5.10;99.90
29731;DHT22;16639;51.488;0.152;2023-12-07T00:50:03;5.10;99.90
29731;DHT22;16639;51.488;0.152;2023-12-07T00:52:31;5.10;99.90
29731;DHT22;16639;51.488;0.152;2023-12-07T00:54:58;5.10;99.90
29731;DHT22;16639;51.488;0.152;2023-12-07T00:57:38;5.10;99.90
29731;DHT22;16639;51.488;0.152;2023-12-07T01:00:07;5.10;99.90
29731;DHT22;16639;51.488;0.152;2023-12-07T01:02:35;5.10;99.90
29731;DHT22;16639;51.488;0.152;2023-12-07T01:05:02;5.10;99.90
29731;DHT22;16639;51.488;0.152;2023-12-07T01:07:30;5.10;99.90
29731;DHT22;16639;51.488;0.152;2023-12-07T01:09:57;5.20;99.90
29731;DHT22;16639;51.488;0.152;2023-12-07T01:12:25;5.20;99.90
29731;DHT22;16639;51.488;0.152;2023-12-07T01:14:53;5.20;99.90
29731;DHT22;16639;51.488;0.152;2023-12-07T01:17:20;5.30;99.90
29731;DHT22;16639;51.488;0.152;2023-12-07T01:19:47;4.70;99.90
29731;DHT22;16639;51.488;0.152;2023-12-07T01:22:15;7.00;99.90
29731;DHT22;16639;51.488;0.152;2023-12-07T01:24:42;5.30;99.90
29731;DHT22;16639;51.488;0.152;2023-12-07T01:27:11;5.30;99.90
29731;DHT22;16639;51.488;0.152;2023-12-07T01:29:38;5.30;99.90
29731;DHT22;16639;51.488;0.152;2023-12-07T01:32:06;5.20;99.90
29731;DHT22;16639;51.488;0.152;2023-12-07T01:34:33;5.30;99.90
29731;DHT22;16639;51.488;0.152;2023-12-07T01:37:01;5.40;99.90
29731;DHT22;16639;51.488;0.152;2023-12-07T01:39:28;5.40;99.90
29731;DHT22;16639;51.488;0.152;2023-12-07T01:41:56;5.40;99.90
29731;DHT22;16639;51.488;0.152;2023-12-07T01:44:23;5.50;99.90
29731;DHT22;16639;51.488;0.152;2023-12-07T01:46:51;5.50;99.90
29731;DHT22;16639;51.488;0.152;2023-12-07T01:49:18;5.50;99.90
29731;DHT22;16639;51.488;0.152;2023-12-07T01:51:46;5.50;99.90
29731;DHT22;16639;51.488;0.152;2023-12-07T01:54:14;5.50;99.90
29731;DHT22;16639;51.488;0.152;2023-12-07T01:56:41;6.40;99.90
29731;DHT22;16639;51.488;0.152;2023-12-07T01:59:10;5.60;99.90
29731;DHT22;16639;51.488;0.152;2023-12-07T02:01:38;5.60;99.90
29731;DHT22;16639;51.488;0.152;2023-12-07T02:04:05;5.60;99.90
29731;DHT22;16639;51.488;0.152;2023-12-07T02:06:33;5.60;99.90
29731;DHT22;16639;51.488;0.152;2023-12-07T02:09:00;5.60;99.90
29731;DHT22;16639;51.488;0.152;2023-12-07T02:11:28;6.00;99.90
29731;DHT22;16639;51.488;0.152;2023-12-07T02:13:56;5.70;99.90
29731;DHT22;16639;51.488;0.152;2023-12-07T02:16:42;5.70;99.90
29731;DHT22;16639;51.488;0.152;2023-12-07T02:21:56;5.70;99.90
29731;DHT22;16639;51.488;0.152;2023-12-07T02:24:27;5.80;99.90
29731;DHT22;16639;51.488;0.152;2023-12-07T02:27:00;5.90;99.90
29731;DHT22;16639;51.488;0.152;2023-12-07T02:29:27;5.80;99.90
29731;DHT22;16639;51.488;0.152;2023-12-07T02:31:55;5.80;99.90
29731;DHT22;16639;51.488;0.152;2023-12-07T02:34:22;5.80;99.90
29731;DHT22;16639;51.488;0.152;2023-12-07T02:36:52;5.80;99.90
29731;DHT22;16639;51.488;0.152;2023-12-07T02:39:21;5.90;99.90
29731;DHT22;16639;51.488;0.152;2023-12-07T02:41:49;5.80;99.90
29731;DHT22;16639;51.488;0.152;2023-12-07T02:44:18;5.90;99.90
29731;DHT22;16639;51.488;0.152;2023-12-07T02:46:45;6.20;99.90
29731;DHT22;16639;51.488;0.152;2023-12-07T02:49:12;5.80;99.90
29731;DHT22;16639;51.488;0.152;2023-12-07T02:51:40;5.20;99.90
29731;DHT22;16639;51.488;0.152;2023-12-07T02:54:07;5.90;99.90
29731;DHT22;16639;51.488;0.152;2023-12-07T02:56:35;5.90;99.90
29731;DHT22;16639;51.488;0.152;2023-12-07T02:59:02;5.90;99.90
29731;DHT22;16639;51.488;0.152;2023-12-07T03:01:29;5.90;99.90
29731;DHT22;16639;51.488;0.152;2023-12-07T03:03:57;6.00;99.90
29731;DHT22;16639;51.488;0.152;2023-12-07T03:06:25;6.00;99.90
29731;DHT22;16639;51.488;0.152;2023-12-07T03:08:52;6.00;99.90
29731;DHT22;16639;51.488;0.152;2023-12-07T03:11:19;6.00;99.90
29731;DHT22;16639;51.488;0.152;2023-12-07T03:13:47;6.00;99.90
29731;DHT22;16639;51.488;0.152;2023-12-07T03:16:14;6.10;99.90
29731;DHT22;16639;51.488;0.152;2023-12-07T03:18:42;6.10;99.90
29731;DHT22;16639;51.488;0.152;2023-12-07T03:21:09;6.10;99.90
29731;DHT22;16639;51.488;0.152;2023-12-07T03:23:37;6.10;99.90
29731;DHT22;16639;51.488;0.152;2023-12-07T03:26:04;6.10;99.90
29731;DHT22;16639;51.488;0.152;2023-12-07T03:28:32;6.10;99.90
29731;DHT22;16639;51.488;0.152;2023-12-07T03:30:59;6.10;99.90
29731;DHT22;16639;51.488;0.152;2023-12-07T03:33:27;6.10;99.90
29731;DHT22;16639;51.488;0.152;2023-12-07T03:35:54;6.10;99.90
29731;DHT22;16639;51.488;0.152;2023-12-07T03:38:22;6.10;99.90
29731;DHT22;16639;51.488;0.152;2023-12-07T03:40:49;6.10;99.90
29731;DHT22;16639;51.488;0.152;2023-12-07T03:43:19;6.20;99.90
29731;DHT22;16639;51.488;0.152;2023-12-07T03:45:48;6.20;99.90
29731;DHT22;16639;51.488;0.152;2023-12-07T03:48:15;6.10;99.90
29731;DHT22;16639;51.488;0.152;2023-12-07T03:50:43;6.20;99.90
29731;DHT22;16639;51.488;0.152;2023-12-07T03:53:10;6.20;99.90
29731;DHT22;16639;51.488;0.152;2023-12-07T03:55:38;6.20;99.90
29731;DHT22;16639;51.488;0.152;2023-12-07T03:58:06;6.20;99.90
29731;DHT22;16639;51.488;0.152;2023-12-07T04:00:33;6.20;99.90
29731;DHT22;16639;51.488;0.152;2023-12-07T04:03:01;6.20;99.90
29731;DHT22;16639;51.488;0.152;2023-12-07T04:05:28;6.20;99.90
29731;DHT22;16639;51.488;0.152;2023-12-07T04:07:56;6.20;99.90
29731;DHT22;16639;51.488;0.152;2023-12-07T04:10:24;6.20;99.90
29731;DHT22;16639;51.488;0.152;2023-12-07T04:12:51;6.50;99.90
29731;DHT22;16639;51.488;0.152;2023-12-07T04:15:20;6.30;99.90
29731;DHT22;16639;51.488;0.152;2023-12-07T04:17:47;6.40;99.90
29731;DHT22;16639;51.488;0.152;2023-12-07T04:20:15;6.30;99.90
29731;DHT22;16639;51.488;0.152;2023-12-07T04:22:43;6.30;99.90
29731;DHT22;16639;51.488;0.152;2023-12-07T04:25:13;6.30;99.90
29731;DHT22;16639;51.488;0.152;2023-12-07T04:27:40;6.30;99.90
29731;DHT22;16639;51.488;0.152;2023-12-07T04:30:08;6.30;99.90
29731;DHT22;16639;51.488;0.152;2023-12-07T04:32:35;6.30;99.90
29731;DHT22;16639;51.488;0.152;2023-12-07T04:35:03;7.00;99.90
29731;DHT22;16639;51.488;0.152;2023-12-07T04:37:31;6.40;99.90
29731;DHT22;16639;51.488;0.152;2023-12-07T04:39:59;6.40;99.90
29731;DHT22;16639;51.488;0.152;2023-12-07T04:42:27;6.40;99.90
29731;DHT22;16639;51.488;0.152;2023-12-07T04:44:54;6.40;99.90
29731;DHT22;16639;51.488;0.152;2023-12-07T04:47:21;6.40;99.90
29731;DHT22;16639;51.488;0.152;2023-12-07T04:49:50;6.50;99.90
29731;DHT22;16639;51.488;0.152;2023-12-07T04:52:19;6.40;99.90
29731;DHT22;16639;51.488;0.152;2023-12-07T04:54:46;6.40;99.90
29731;DHT22;16639;51.488;0.152;2023-12-07T04:57:14;6.50;99.90
29731;DHT22;16639;51.488;0.152;2023-12-07T04:59:41;6.50;99.90
29731;DHT22;16639;51.488;0.152;2023-12-07T05:02:09;6.50;99.90
29731;DHT22;16639;51.488;0.152;2023-12-07T05:04:36;6.40;99.90
29731;DHT22;16639;51.488;0.152;2023-12-07T05:07:04;6.10;99.90
29731;DHT22;16639;51.488;0.152;2023-12-07T05:09:31;6.90;99.90
29731;DHT22;16639;51.488;0.152;2023-12-07T05:11:59;6.50;99.90
29731;DHT22;16639;51.488;0.152;2023-12-07T05:14:26;6.50;99.90
29731;DHT22;16639;51.488;0.152;2023-12-07T05:16:54;6.50;99.90
29731;DHT22;16639;51.488;0.152;2023-12-07T05:19:25;6.50;99.90
29731;DHT22;16639;51.488;0.152;2023-12-07T05:21:53;6.50;99.90
29731;DHT22;16639;51.488;0.152;2023-12-07T05:24:20;6.20;99.90
29731;DHT22;16639;51.488;0.152;2023-12-07T05:26:48;6.50;99.90
29731;DHT22;16639;51.488;0.152;2023-12-07T05:29:16;6.50;99.90
29731;DHT22;16639;51.488;0.152;2023-12-07T05:31:43;6.50;99.90
29731;DHT22;16639;51.488;0.152;2023-12-07T05:34:11;6.50;99.90
29731;DHT22;16639;51.488;0.152;2023-12-07T05:36:38;7.20;99.90
29731;DHT22;16639;51.488;0.152;2023-12-07T05:39:05;6.50;99.90
29731;DHT22;16639;51.488;0.152;2023-12-07T05:41:34;6.50;99.90
29731;DHT22;16639;51.488;0.152;2023-12-07T05:44:02;6.50;99.90
29731;DHT22;16639;51.488;0.152;2023-12-07T05:46:31;6.50;99.90
29731;DHT22;16639;51.488;0.152;2023-12-07T05:49:00;6.60;99.90
29731;DHT22;16639;51.488;0.152;2023-12-07T05:51:27;6.60;99.90
29731;DHT22;16639;51.488;0.152;2023-12-07T05:53:54;6.60;99.90
29731;DHT22;16639;51.488;0.152;2023-12-07T05:56:22;6.60;99.90
29731;DHT22;16639;51.488;0.152;2023-12-07T05:58:50;7.60;99.90
29731;DHT22;16639;51.488;0.152;2023-12-07T06:01:17;6.50;99.90
29731;DHT22;16639;51.488;0.152;2023-12-07T06:03:46;6.50;99.90
29731;DHT22;16639;51.488;0.152;2023-12-07T06:06:13;6.50;99.90
29731;DHT22;16639;51.488;0.152;2023-12-07T06:08:41;6.60;99.90
29731;DHT22;16639;51.488;0.152;2023-12-07T06:11:09;6.50;99.90
29731;DHT22;16639;51.488;0.152;2023-12-07T06:13:37;6.50;99.90
29731;DHT22;16639;51.488;0.152;2023-12-07T06:16:05;6.50;99.90
29731;DHT22;16639;51.488;0.152;2023-12-07T06:18:32;6.50;99.90
29731;DHT22;16639;51.488;0.152;2023-12-07T06:21:00;6.50;99.90
29731;DHT22;16639;51.488;0.152;2023-12-07T06:23:27;6.50;99.90
29731;DHT22;16639;51.488;0.152;2023-12-07T06:25:55;6.40;99.90
29731;DHT22;16639;51.488;0.152;2023-12-07T06:28:22;6.60;99.90
29731;DHT22;16639;51.488;0.152;2023-12-07T06:30:49;6.50;99.90
29731;DHT22;16639;51.488;0.152;2023-12-07T06:33:17;6.60;99.90
29731;DHT22;16639;51.488;0.152;2023-12-07T06:35:44;6.50;99.90
29731;DHT22;16639;51.488;0.152;2023-12-07T06:38:13;6.50;99.90
29731;DHT22;16639;51.488;0.152;2023-12-07T06:40:41;6.40;99.90
29731;DHT22;16639;51.488;0.152;2023-12-07T06:43:08;6.60;99.90
29731;DHT22;16639;51.488;0.152;2023-12-07T06:45:35;6.20;99.90
29731;DHT22;16639;51.488;0.152;2023-12-07T06:48:03;6.60;99.90
29731;DHT22;16639;51.488;0.152;2023-12-07T06:50:31;6.60;99.90
29731;DHT22;16639;51.488;0.152;2023-12-07T06:52:59;6.60;99.90
29731;DHT22;16639;51.488;0.152;2023-12-07T06:55:27;6.60;99.90
29731;DHT22;16639;51.488;0.152;2023-12-07T06:57:55;6.60;99.90
29731;DHT22;16639;51.488;0.152;2023-12-07T07:00:22;6.60;99.90
29731;DHT22;16639;51.488;0.152;2023-12-07T07:02:51;6.60;99.90
29731;DHT22;16639;51.488;0.152;2023-12-07T07:05:19;6.60;99.90
29731;DHT22;16639;51.488;0.152;2023-12-07T07:07:47;6.60;99.90
29731;DHT22;16639;51.488;0.152;2023-12-07T07:10:14;6.60;99.90
29731;DHT22;16639;51.488;0.152;2023-12-07T07:12:42;6.60;99.90
29731;DHT22;16639;51.488;0.152;2023-12-07T07:15:09;6.60;99.90
29731;DHT22;16639;51.488;0.152;2023-12-07T07:17:37;6.60;99.90
29731;DHT22;16639;51.488;0.152;2023-12-07T07:20:05;6.90;99.90
29731;DHT22;16639;51.488;0.152;2023-12-07T07:22:32;6.60;99.90
29731;DHT22;16639;51.488;0.152;2023-12-07T07:25:01;6.50;99.90
29731;DHT22;16639;51.488;0.152;2023-12-07T07:27:30;6.60;99.90
29731;DHT22;16639;51.488;0.152;2023-12-07T07:29:57;6.60;99.90
29731;DHT22;16639;51.488;0.152;2023-12-07T07:32:24;6.60;99.90
29731;DHT22;16639;51.488;0.152;2023-12-07T07:34:52;6.60;99.90
29731;DHT22;16639;51.488;0.152;2023-12-07T07:37:19;6.70;99.90
29731;DHT22;16639;51.488;0.152;2023-12-07T07:39:47;6.60;99.90
29731;DHT22;16639;51.488;0.152;2023-12-07T07:42:15;6.60;99.90
29731;DHT22;16639;51.488;0.152;2023-12-07T07:44:43;6.60;99.90
29731;DHT22;16639;51.488;0.152;2023-12-07T07:47:11;6.70;99.90
29731;DHT22;16639;51.488;0.152;2023-12-07T07:49:38;6.60;99.90
29731;DHT22;16639;51.488;0.152;2023-12-07T07:52:06;6.60;99.90
29731;DHT22;16639;51.488;0.152;2023-12-07T07:54:33;6.60;99.90
29731;DHT22;16639;51.488;0.152;2023-12-07T07:57:01;6.60;99.90
29731;DHT22;16639;51.488;0.152;2023-12-07T07:59:28;6.60;99.90
29731;DHT22;16639;51.488;0.152;2023-12-07T08:01:56;6.80;99.90
29731;DHT22;16639;51.488;0.152;2023-12-07T08:04:23;6.70;99.90
29731;DHT22;16639;51.488;0.152;2023-12-07T08:06:51;6.70;99.90
29731;DHT22;16639;51.488;0.152;2023-12-07T08:09:18;6.80;99.90
29731;DHT22;16639;51.488;0.152;2023-12-07T08:11:45;6.80;99.90
29731;DHT22;16639;51.488;0.152;2023-12-07T08:14:13;6.90;99.90
29731;DHT22;16639;51.488;0.152;2023-12-07T08:16:46;6.90;99.90
29731;DHT22;16639;51.488;0.152;2023-12-07T08:19:14;6.90;99.90
29731;DHT22;16639;51.488;0.152;2023-12-07T08:21:41;7.00;99.90
29731;DHT22;16639;51.488;0.152;2023-12-07T08:24:09;6.90;99.90
29731;DHT22;16639;51.488;0.152;2023-12-07T08:26:36;7.00;99.90
29731;DHT22;16639;51.488;0.152;2023-12-07T08:29:04;6.90;99.90
29731;DHT22;16639;51.488;0.152;2023-12-07T08:31:35;6.90;99.90
29731;DHT22;16639;51.488;0.152;2023-12-07T08:34:02;6.90;99.90
29731;DHT22;16639;51.488;0.152;2023-12-07T08:36:30;6.90;99.90
29731;DHT22;16639;51.488;0.152;2023-12-07T08:38:57;7.90;99.90
29731;DHT22;16639;51.488;0.152;2023-12-07T08:41:25;6.90;99.90
29731;DHT22;16639;51.488;0.152;2023-12-07T08:43:52;6.90;99.90
29731;DHT22;16639;51.488;0.152;2023-12-07T08:46:20;6.90;99.90
29731;DHT22;16639;51.488;0.152;2023-12-07T08:48:47;6.90;99.90
29731;DHT22;16639;51.488;0.152;2023-12-07T08:51:15;6.90;99.90
29731;DHT22;16639;51.488;0.152;2023-12-07T08:53:43;6.80;99.90
29731;DHT22;16639;51.488;0.152;2023-12-07T08:56:11;6.90;99.90
29731;DHT22;16639;51.488;0.152;2023-12-07T08:58:40;6.90;99.90
29731;DHT22;16639;51.488;0.152;2023-12-07T09:01:09;6.90;99.90
29731;DHT22;16639;51.488;0.152;2023-12-07T09:03:52;7.10;99.90
29731;DHT22;16639;51.488;0.152;2023-12-07T09:06:19;6.90;99.90
29731;DHT22;16639;51.488;0.152;2023-12-07T09:08:47;6.90;99.90
29731;DHT22;16639;51.488;0.152;2023-12-07T09:11:16;7.00;99.90
29731;DHT22;16639;51.488;0.152;2023-12-07T09:13:44;6.90;99.90
29731;DHT22;16639;51.488;0.152;2023-12-07T09:16:14;6.90;99.90
29731;DHT22;16639;51.488;0.152;2023-12-07T09:18:43;7.00;99.90
29731;DHT22;16639;51.488;0.152;2023-12-07T09:21:13;7.00;99.90
29731;DHT22;16639;51.488;0.152;2023-12-07T09:23:42;7.00;99.90
29731;DHT22;16639;51.488;0.152;2023-12-07T09:26:09;9.00;99.90
29731;DHT22;16639;51.488;0.152;2023-12-07T09:28:36;7.00;99.90
29731;DHT22;16639;51.488;0.152;2023-12-07T09:31:08;7.60;99.90
29731;DHT22;16639;51.488;0.152;2023-12-07T09:33:35;7.10;99.90
29731;DHT22;16639;51.488;0.152;2023-12-07T09:36:04;7.10;99.90
29731;DHT22;16639;51.488;0.152;2023-12-07T09:38:36;7.10;99.90
29731;DHT22;16639;51.488;0.152;2023-12-07T09:41:04;7.10;99.90
29731;DHT22;16639;51.488;0.152;2023-12-07T09:43:31;7.10;99.90
29731;DHT22;16639;51.488;0.152;2023-12-07T09:46:00;7.10;99.90
29731;DHT22;16639;51.488;0.152;2023-12-07T09:48:28;7.10;99.90
29731;DHT22;16639;51.488;0.152;2023-12-07T09:50:56;7.20;99.90
29731;DHT22;16639;51.488;0.152;2023-12-07T09:53:24;7.20;99.90
29731;DHT22;16639;51.488;0.152;2023-12-07T09:55:52;7.20;99.90
29731;DHT22;16639;51.488;0.152;2023-12-07T09:58:19;7.20;99.90
29731;DHT22;16639;51.488;0.152;2023-12-07T10:01:01;7.20;99.90
29731;DHT22;16639;51.488;0.152;2023-12-07T10:03:29;7.30;99.90
29731;DHT22;16639;51.488;0.152;2023-12-07T10:05:58;7.20;99.90
29731;DHT22;16639;51.488;0.152;2023-12-07T10:11:08;7.30;99.90
29731;DHT22;16639;51.488;0.152;2023-12-07T10:13:36;7.30;99.90
29731;DHT22;16639;51.488;0.152;2023-12-07T10:16:06;7.30;99.90
29731;DHT22;16639;51.488;0.152;2023-12-07T10:18:33;7.30;99.90
29731;DHT22;16639;51.488;0.152;2023-12-07T10:21:03;7.30;99.90
29731;DHT22;16639;51.488;0.152;2023-12-07T10:23:31;7.40;99.90
29731;DHT22;16639;51.488;0.152;2023-12-07T10:25:59;7.40;99.90
29731;DHT22;16639;51.488;0.152;2023-12-07T10:28:27;7.40;99.90
29731;DHT22;16639;51.488;0.152;2023-12-07T10:30:55;7.90;99.90
29731;DHT22;16639;51.488;0.152;2023-12-07T10:33:25;7.40;99.90
29731;DHT22;16639;51.488;0.152;2023-12-07T10:35:53;7.50;99.90
29731;DHT22;16639;51.488;0.152;2023-12-07T10:38:20;7.50;99.90
29731;DHT22;16639;51.488;0.152;2023-12-07T10:40:51;7.50;99.90
29731;DHT22;16639;51.488;0.152;2023-12-07T10:43:27;7.50;99.90
29731;DHT22;16639;51.488;0.152;2023-12-07T10:45:55;7.50;99.90
29731;DHT22;16639;51.488;0.152;2023-12-07T10:48:23;7.60;99.90
29731;DHT22;16639;51.488;0.152;2023-12-07T10:50:53;7.50;99.90
29731;DHT22;16639;51.488;0.152;2023-12-07T10:53:29;7.60;99.90
29731;DHT22;16639;51.488;0.152;2023-12-07T10:56:00;8.10;99.90
29731;DHT22;16639;51.488;0.152;2023-12-07T10:58:28;7.60;99.90
29731;DHT22;16639;51.488;0.152;2023-12-07T11:00:57;7.60;99.90
29731;DHT22;16639;51.488;0.152;2023-12-07T11:03:26;7.60;99.90
29731;DHT22;16639;51.488;0.152;2023-12-07T11:05:55;7.60;99.90
29731;DHT22;16639;51.488;0.152;2023-12-07T11:08:35;7.80;99.90
29731;DHT22;16639;51.488;0.152;2023-12-07T11:13:59;7.80;99.90
29731;DHT22;16639;51.488;0.152;2023-12-07T11:16:41;7.70;99.90
29731;DHT22;16639;51.488;0.152;2023-12-07T11:22:12;7.50;99.90
29731;DHT22;16639;51.488;0.152;2023-12-07T11:24:57;7.80;99.90
29731;DHT22;16639;51.488;0.152;2023-12-07T11:27:37;7.80;99.90
29731;DHT22;16639;51.488;0.152;2023-12-07T11:30:06;7.80;99.90
29731;DHT22;16639;51.488;0.152;2023-12-07T11:32:40;7.80;99.90
29731;DHT22;16639;51.488;0.152;2023-12-07T11:35:14;7.70;99.90
29731;DHT22;16639;51.488;0.152;2023-12-07T11:40:43;7.90;99.90
29731;DHT22;16639;51.488;0.152;2023-12-07T11:46:07;7.90;99.90
29731;DHT22;16639;51.488;0.152;2023-12-07T11:48:35;7.90;99.90
29731;DHT22;16639;51.488;0.152;2023-12-07T11:51:07;7.70;99.90
29731;DHT22;16639;51.488;0.152;2023-12-07T11:53:36;7.80;99.90
29731;DHT22;16639;51.488;0.152;2023-12-07T11:56:05;7.80;99.90
29731;DHT22;16639;51.488;0.152;2023-12-07T11:58:34;8.90;99.90
29731;DHT22;16639;51.488;0.152;2023-12-07T12:01:07;7.90;99.90
29731;DHT22;16639;51.488;0.152;2023-12-07T12:03:36;7.90;99.90
29731;DHT22;16639;51.488;0.152;2023-12-07T12:06:05;7.80;99.90
29731;DHT22;16639;51.488;0.152;2023-12-07T12:08:35;7.90;99.90
29731;DHT22;16639;51.488;0.152;2023-12-07T12:11:02;7.90;99.90
29731;DHT22;16639;51.488;0.152;2023-12-07T12:13:36;8.90;99.90
29731;DHT22;16639;51.488;0.152;2023-12-07T12:16:04;7.90;99.90
29731;DHT22;16639;51.488;0.152;2023-12-07T12:18:34;7.90;99.90
29731;DHT22;16639;51.488;0.152;2023-12-07T12:21:03;7.90;99.90
29731;DHT22;16639;51.488;0.152;2023-12-07T12:23:30;7.90;99.90
29731;DHT22;16639;51.488;0.152;2023-12-07T12:25:58;7.80;99.90
29731;DHT22;16639;51.488;0.152;2023-12-07T12:28:25;7.90;99.90
29731;DHT22;16639;51.488;0.152;2023-12-07T12:30:54;7.90;99.90
29731;DHT22;16639;51.488;0.152;2023-12-07T12:33:22;7.90;99.90
29731;DHT22;16639;51.488;0.152;2023-12-07T12:36:06;7.90;99.90
29731;DHT22;16639;51.488;0.152;2023-12-07T12:38:34;7.90;99.90
29731;DHT22;16639;51.488;0.152;2023-12-07T12:41:10;7.90;99.90
29731;DHT22;16639;51.488;0.152;2023-12-07T12:43:38;7.90;99.90
29731;DHT22;16639;51.488;0.152;2023-12-07T12:46:05;7.90;99.90
29731;DHT22;16639;51.488;0.152;2023-12-07T12:48:34;7.90;99.90
29731;DHT22;16639;51.488;0.152;2023-12-07T12:51:08;7.90;99.90
29731;DHT22;16639;51.488;0.152;2023-12-07T12:53:39;7.70;99.90
29731;DHT22;16639;51.488;0.152;2023-12-07T12:56:08;7.90;99.90
29731;DHT22;16639;51.488;0.152;2023-12-07T12:58:37;7.90;99.90
29731;DHT22;16639;51.488;0.152;2023-12-07T13:01:05;7.90;99.90
29731;DHT22;16639;51.488;0.152;2023-12-07T13:03:34;7.70;99.90
29731;DHT22;16639;51.488;0.152;2023-12-07T13:06:01;7.90;99.90
29731;DHT22;16639;51.488;0.152;2023-12-07T13:08:30;7.90;99.90
29731;DHT22;16639;51.488;0.152;2023-12-07T13:11:00;7.80;99.90
29731;DHT22;16639;51.488;0.152;2023-12-07T13:13:28;7.80;99.90
29731;DHT22;16639;51.488;0.152;2023-12-07T13:15:55;7.80;99.90
29731;DHT22;16639;51.488;0.152;2023-12-07T13:18:23;7.80;99.90
29731;DHT22;16639;51.488;0.152;2023-12-07T13:20:50;7.80;99.90
29731;DHT22;16639;51.488;0.152;2023-12-07T13:23:22;7.80;99.90
29731;DHT22;16639;51.488;0.152;2023-12-07T13:25:50;7.90;99.90
29731;DHT22;16639;51.488;0.152;2023-12-07T13:28:17;7.90;99.90
29731;DHT22;16639;51.488;0.152;2023-12-07T13:30:44;7.90;99.90
29731;DHT22;16639;51.488;0.152;2023-12-07T13:33:12;7.90;99.90
29731;DHT22;16639;51.488;0.152;2023-12-07T13:35:53;9.00;99.90
29731;DHT22;16639;51.488;0.152;2023-12-07T13:38:23;7.90;99.90
29731;DHT22;16639;51.488;0.152;2023-12-07T13:40:51;7.90;99.90
29731;DHT22;16639;51.488;0.152;2023-12-07T13:43:18;7.90;99.90
29731;DHT22;16639;51.488;0.152;2023-12-07T13:45:46;7.90;99.90
29731;DHT22;16639;51.488;0.152;2023-12-07T13:48:15;7.80;99.90
29731;DHT22;16639;51.488;0.152;2023-12-07T13:50:43;9.10;99.90
29731;DHT22;16639;51.488;0.152;2023-12-07T13:53:10;7.80;99.90
29731;DHT22;16639;51.488;0.152;2023-12-07T13:55:39;7.80;99.90
29731;DHT22;16639;51.488;0.152;2023-12-07T13:58:06;7.80;99.90
29731;DHT22;16639;51.488;0.152;2023-12-07T14:00:34;7.80;99.90
29731;DHT22;16639;51.488;0.152;2023-12-07T14:03:02;7.80;99.90
29731;DHT22;16639;51.488;0.152;2023-12-07T14:05:31;7.80;99.90
29731;DHT22;16639;51.488;0.152;2023-12-07T14:07:58;7.80;99.90
29731;DHT22;16639;51.488;0.152;2023-12-07T14:10:26;7.80;99.90
29731;DHT22;16639;51.488;0.152;2023-12-07T14:12:56;7.80;99.90
29731;DHT22;16639;51.488;0.152;2023-12-07T14:15:24;7.80;99.90
29731;DHT22;16639;51.488;0.152;2023-12-07T14:18:08;7.80;99.90
29731;DHT22;16639;51.488;0.152;2023-12-07T14:20:36;7.80;99.90
29731;DHT22;16639;51.488;0.152;2023-12-07T14:23:08;7.90;99.90
29731;DHT22;16639;51.488;0.152;2023-12-07T14:25:35;7.80;99.90
29731;DHT22;16639;51.488;0.152;2023-12-07T14:28:03;6.80;99.90
29731;DHT22;16639;51.488;0.152;2023-12-07T14:30:30;7.80;99.90
29731;DHT22;16639;51.488;0.152;2023-12-07T14:32:58;7.80;99.90
29731;DHT22;16639;51.488;0.152;2023-12-07T14:35:25;7.70;99.90
29731;DHT22;16639;51.488;0.152;2023-12-07T14:37:53;7.80;99.90
29731;DHT22;16639;51.488;0.152;2023-12-07T14:40:20;7.70;99.90
29731;DHT22;16639;51.488;0.152;2023-12-07T14:42:56;7.70;99.90
29731;DHT22;16639;51.488;0.152;2023-12-07T14:45:25;7.70;99.90
29731;DHT22;16639;51.488;0.152;2023-12-07T14:47:53;7.70;99.90
29731;DHT22;16639;51.488;0.152;2023-12-07T14:50:21;7.70;99.90
29731;DHT22;16639;51.488;0.152;2023-12-07T14:52:48;7.60;99.90
29731;DHT22;16639;51.488;0.152;2023-12-07T14:55:17;7.60;99.90
29731;DHT22;16639;51.488;0.152;2023-12-07T14:57:48;7.50;99.90
29731;DHT22;16639;51.488;0.152;2023-12-07T15:00:17;7.60;99.90
29731;DHT22;16639;51.488;0.152;2023-12-07T15:02:46;7.50;99.90
29731;DHT22;16639;51.488;0.152;2023-12-07T15:05:14;7.60;99.90
29731;DHT22;16639;51.488;0.152;2023-12-07T15:07:41;7.60;99.90
29731;DHT22;16639;51.488;0.152;2023-12-07T15:10:09;7.70;99.90
29731;DHT22;16639;51.488;0.152;2023-12-07T15:12:36;7.60;99.90
29731;DHT22;16639;51.488;0.152;2023-12-07T15:15:04;7.50;99.90
29731;DHT22;16639;51.488;0.152;2023-12-07T15:17:33;8.30;99.90
29731;DHT22;16639;51.488;0.152;2023-12-07T15:20:01;7.60;99.90
29731;DHT22;16639;51.488;0.152;2023-12-07T15:22:30;7.60;99.90
29731;DHT22;16639;51.488;0.152;2023-12-07T15:24:58;7.60;99.90
29731;DHT22;16639;51.488;0.152;2023-12-07T15:27:25;6.40;99.90
29731;DHT22;16639;51.488;0.152;2023-12-07T15:29:53;7.50;99.90
29731;DHT22;16639;51.488;0.152;2023-12-07T15:32:21;7.50;99.90
29731;DHT22;16639;51.488;0.152;2023-12-07T15:34:51;7.50;99.90
29731;DHT22;16639;51.488;0.152;2023-12-07T15:37:18;7.50;99.90
29731;DHT22;16639;51.488;0.152;2023-12-07T15:39:46;7.50;99.90
29731;DHT22;16639;51.488;0.152;2023-12-07T15:42:14;7.40;99.90
29731;DHT22;16639;51.488;0.152;2023-12-07T15:44:41;7.40;99.90
29731;DHT22;16639;51.488;0.152;2023-12-07T15:47:09;7.40;99.90
29731;DHT22;16639;51.488;0.152;2023-12-07T15:49:37;7.80;99.90
29731;DHT22;16639;51.488;0.152;2023-12-07T15:52:05;7.40;99.90
29731;DHT22;16639;51.488;0.152;2023-12-07T15:54:32;7.40;99.90
29731;DHT22;16639;51.488;0.152;2023-12-07T15:57:07;7.40;99.90
29731;DHT22;16639;51.488;0.152;2023-12-07T15:59:37;7.40;99.90
29731;DHT22;16639;51.488;0.152;2023-12-07T16:02:05;7.40;99.90
29731;DHT22;16639;51.488;0.152;2023-12-07T16:04:32;7.40;99.90
29731;DHT22;16639;51.488;0.152;2023-12-07T16:07:04;7.50;99.90
29731;DHT22;16639;51.488;0.152;2023-12-07T16:09:36;7.40;99.90